createdAt,value
2022-08-26T00:01:57.145Z,1.60
2022-08-26T00:07:18.990Z,2.15
2022-08-26T00:09:47.301Z,1.70
2022-08-26T00:12:16.578Z,1.70
2022-08-26T00:14:45.554Z,1.65
2022-08-26T00:17:14.734Z,1.60
2022-08-26T00:19:43.130Z,1.80
2022-08-26T00:22:12.130Z,1.47
2022-08-26T00:27:35.703Z,1.55
2022-08-26T00:30:17.210Z,1.63
2022-08-26T00:32:52.460Z,1.55
2022-08-26T00:37:55.013Z,1.60
2022-08-26T00:40:31.388Z,1.50
2022-08-26T00:42:59.748Z,1.45
2022-08-26T00:51:21.958Z,1.63
2022-08-26T00:53:58.355Z,1.77
2022-08-26T00:56:36.130Z,1.83
2022-08-26T00:59:08.040Z,2.10
2022-08-26T01:01:39.579Z,1.77
2022-08-26T01:04:09.108Z,1.42
2022-08-26T01:06:37.622Z,1.90
2022-08-26T01:13:18.348Z,1.45
2022-08-26T01:15:55.542Z,1.40
2022-08-26T01:18:25.837Z,1.30
2022-08-26T01:20:59.596Z,1.27
2022-08-26T01:23:41.005Z,1.73
2022-08-26T01:26:21.882Z,1.50
2022-08-26T01:34:15.903Z,1.30
2022-08-26T01:36:50.722Z,1.95
2022-08-26T01:39:20.085Z,1.80
2022-08-26T01:41:48.656Z,2.28
2022-08-26T01:44:28.682Z,1.60
2022-08-26T01:46:59.212Z,1.38
2022-08-26T01:49:28.535Z,1.55
2022-08-26T01:57:07.849Z,1.70
2022-08-26T01:59:37.013Z,1.60
2022-08-26T02:02:06.829Z,1.38
2022-08-26T02:04:57.024Z,1.45
2022-08-26T02:09:56.762Z,1.60
2022-08-26T02:12:26.504Z,1.88
2022-08-26T02:20:19.459Z,1.98
2022-08-26T02:22:48.554Z,1.80
2022-08-26T02:25:26.523Z,1.30
2022-08-26T02:27:57.260Z,1.58
2022-08-26T02:30:32.540Z,1.30
2022-08-26T02:33:05.519Z,1.60
2022-08-26T02:35:38.132Z,1.42
2022-08-26T02:43:18.791Z,1.58
2022-08-26T02:46:01.737Z,1.33
2022-08-26T02:48:30.506Z,1.50
2022-08-26T02:51:01.207Z,1.23
2022-08-26T02:53:35.555Z,1.40
2022-08-26T02:56:07.330Z,1.67
2022-08-26T02:58:39.506Z,1.60
2022-08-26T03:06:17.420Z,1.77
2022-08-26T03:08:47.703Z,1.80
2022-08-26T03:11:21.003Z,1.70
2022-08-26T03:13:50.513Z,1.50
2022-08-26T03:16:19.157Z,1.55
2022-08-26T03:18:52.568Z,1.75
2022-08-26T03:21:22.640Z,1.33
2022-08-26T03:29:30.123Z,1.80
2022-08-26T03:32:05.950Z,1.95
2022-08-26T03:34:35.588Z,1.67
2022-08-26T03:37:08.749Z,1.92
2022-08-26T03:39:36.940Z,2.17
2022-08-26T03:42:06.623Z,1.77
2022-08-26T03:44:40.088Z,1.92
2022-08-26T03:52:21.098Z,1.65
2022-08-26T03:54:48.726Z,1.80
2022-08-26T03:57:17.594Z,1.90
2022-08-26T03:59:47.604Z,1.77
2022-08-26T04:02:19.327Z,1.60
2022-08-26T04:04:48.265Z,1.70
2022-08-26T04:07:17.112Z,2.03
2022-08-26T04:17:28.391Z,2.03
2022-08-26T04:19:57.419Z,1.90
2022-08-26T04:22:27.042Z,2.00
2022-08-26T04:24:58.273Z,1.70
2022-08-26T04:27:27.668Z,1.92
2022-08-26T04:29:57.379Z,2.00
2022-08-26T04:32:27.290Z,2.35
2022-08-26T04:40:18.619Z,1.80
2022-08-26T04:42:47.460Z,1.90
2022-08-26T04:45:17.044Z,1.83
2022-08-26T04:50:20.908Z,1.60
2022-08-26T04:52:52.927Z,1.55
2022-08-26T04:55:38.688Z,1.77
2022-08-26T05:00:50.307Z,1.98
2022-08-26T05:03:18.976Z,2.08
2022-08-26T05:05:52.499Z,2.00
2022-08-26T05:08:22.452Z,1.90
2022-08-26T05:10:57.975Z,2.05
2022-08-26T05:13:28.904Z,1.83
2022-08-26T05:16:01.185Z,2.05
2022-08-26T05:24:01.480Z,2.22
2022-08-26T05:26:32.314Z,1.92
2022-08-26T05:31:32.012Z,2.35
2022-08-26T05:34:03.692Z,2.35
2022-08-26T05:36:37.133Z,2.15
2022-08-26T05:39:10.655Z,1.85
2022-08-26T05:46:29.292Z,2.33
2022-08-26T05:48:59.311Z,2.10
2022-08-26T05:51:27.959Z,2.60
2022-08-26T05:53:58.624Z,2.30
2022-08-26T05:56:28.135Z,2.33
2022-08-26T05:58:58.601Z,2.30
2022-08-26T06:01:29.055Z,2.00
2022-08-26T06:09:06.249Z,2.00
2022-08-26T06:11:38.029Z,2.13
2022-08-26T06:14:08.906Z,2.20
2022-08-26T06:16:41.213Z,2.10
2022-08-26T06:19:11.765Z,2.00
2022-08-26T06:21:42.166Z,2.97
2022-08-26T06:24:36.890Z,2.45
2022-08-26T06:29:56.658Z,2.00
2022-08-26T06:32:25.956Z,2.10
2022-08-26T06:34:55.139Z,1.98
2022-08-26T06:37:22.679Z,2.03
2022-08-26T06:39:53.565Z,1.95
2022-08-26T06:42:22.891Z,2.80
2022-08-26T06:44:53.047Z,1.80
2022-08-26T06:52:31.436Z,1.88
2022-08-26T06:54:59.441Z,2.20
2022-08-26T06:57:28.901Z,2.20
2022-08-26T06:59:59.862Z,2.13
2022-08-26T07:02:28.479Z,2.15
2022-08-26T07:04:58.160Z,2.03
2022-08-26T07:07:27.883Z,2.57
2022-08-26T07:15:12.102Z,2.10
2022-08-26T07:17:40.310Z,2.33
2022-08-26T07:20:09.150Z,2.47
2022-08-26T07:22:37.955Z,2.30
2022-08-26T07:25:09.191Z,2.35
2022-08-26T07:27:39.706Z,3.20
2022-08-26T07:30:08.113Z,2.90
2022-08-26T07:35:19.714Z,2.53
2022-08-26T07:37:48.243Z,2.20
2022-08-26T07:40:18.773Z,2.30
2022-08-26T07:42:48.002Z,2.38
2022-08-26T07:45:18.608Z,3.13
2022-08-26T07:47:48.300Z,2.28
2022-08-26T07:50:19.215Z,2.20
2022-08-26T07:57:57.839Z,2.03
2022-08-26T08:00:32.546Z,2.30
2022-08-26T08:03:01.523Z,2.20
2022-08-26T08:05:33.718Z,2.22
2022-08-26T08:08:27.723Z,2.50
2022-08-26T08:10:59.908Z,2.45
2022-08-26T08:13:30.997Z,2.10
2022-08-26T08:19:21.861Z,2.55
2022-08-26T08:21:49.521Z,2.15
2022-08-26T08:24:18.359Z,2.50
2022-08-26T08:26:47.541Z,2.25
2022-08-26T08:29:16.286Z,2.28
2022-08-26T08:31:56.500Z,2.00
2022-08-26T08:34:29.632Z,2.65
2022-08-26T08:39:38.231Z,2.38
2022-08-26T08:42:09.269Z,2.50
2022-08-26T08:44:42.353Z,2.70
2022-08-26T08:47:27.563Z,3.22
2022-08-26T08:50:06.556Z,2.30
2022-08-26T08:52:37.824Z,2.45
2022-08-26T08:55:11.023Z,2.50
2022-08-26T09:03:27.986Z,2.40
2022-08-26T09:06:00.279Z,2.72
2022-08-26T09:08:37.468Z,2.75
2022-08-26T09:11:06.928Z,2.60
2022-08-26T09:13:37.253Z,2.47
2022-08-26T09:16:19.127Z,2.97
2022-08-26T09:19:03.652Z,1.95
2022-08-26T09:26:43.031Z,2.33
2022-08-26T09:29:27.537Z,2.60
2022-08-26T09:32:24.456Z,2.58
2022-08-26T09:34:57.629Z,2.30
2022-08-26T09:40:29.379Z,2.45
2022-08-26T09:46:18.298Z,2.53
2022-08-26T09:48:47.663Z,2.65
2022-08-26T09:51:31.040Z,2.55
2022-08-26T09:54:01.291Z,2.47
2022-08-26T09:56:32.604Z,2.78
2022-08-26T09:59:01.270Z,2.40
2022-08-26T10:01:33.271Z,2.20
2022-08-26T10:09:48.619Z,2.50
2022-08-26T10:12:23.029Z,2.50
2022-08-26T10:14:57.609Z,2.67
2022-08-26T10:17:47.206Z,2.22
2022-08-26T10:20:31.568Z,2.63
2022-08-26T10:23:04.460Z,2.22
2022-08-26T10:25:47.368Z,2.40
2022-08-26T10:33:48.072Z,2.45
2022-08-26T10:36:52.355Z,2.70
2022-08-26T10:39:37.426Z,2.47
2022-08-26T10:42:23.298Z,3.13
2022-08-26T10:44:58.619Z,3.10
2022-08-26T10:47:38.761Z,2.42
2022-08-26T10:50:08.546Z,2.78
2022-08-26T10:55:34.946Z,2.15
2022-08-26T10:58:27.633Z,2.60
2022-08-26T11:01:51.013Z,2.30
2022-08-26T11:04:29.003Z,2.45
2022-08-26T11:07:33.526Z,3.22
2022-08-26T11:10:18.069Z,2.53
2022-08-26T11:18:38.420Z,2.95
2022-08-26T11:21:44.103Z,2.50
2022-08-26T11:24:50.520Z,2.80
2022-08-26T11:27:38.355Z,3.00
2022-08-26T11:30:10.623Z,2.75
2022-08-26T11:32:39.506Z,2.85
2022-08-26T11:40:42.285Z,2.80
2022-08-26T11:43:21.300Z,3.30
2022-08-26T11:46:12.282Z,3.50
2022-08-26T11:48:43.179Z,2.70
2022-08-26T11:51:14.175Z,2.90
2022-08-26T11:53:47.675Z,3.10
2022-08-26T11:56:31.524Z,2.78
2022-08-26T12:04:42.924Z,2.90
2022-08-26T12:07:10.689Z,2.33
2022-08-26T12:10:00.429Z,2.20
2022-08-26T12:12:35.151Z,2.53
2022-08-26T12:15:23.712Z,2.63
2022-08-26T12:17:55.958Z,2.28
2022-08-26T12:24:20.457Z,2.42
2022-08-26T12:26:49.070Z,2.42
2022-08-26T12:29:30.441Z,1.90
2022-08-26T12:32:13.422Z,2.08
2022-08-26T12:34:48.814Z,1.85
2022-08-26T12:37:20.118Z,1.77
2022-08-26T12:39:49.591Z,2.05
2022-08-26T12:47:48.232Z,2.10
2022-08-26T12:50:23.802Z,1.65
2022-08-26T12:53:11.700Z,2.90
2022-08-26T12:55:47.849Z,1.65
2022-08-26T12:58:27.663Z,1.52
2022-08-26T13:01:19.121Z,2.67
2022-08-26T13:03:52.395Z,1.70
2022-08-26T13:11:32.996Z,1.40
2022-08-26T13:14:09.475Z,2.42
2022-08-26T13:16:39.971Z,1.60
2022-08-26T13:19:14.076Z,1.38
2022-08-26T13:21:53.282Z,1.80
2022-08-26T13:24:22.806Z,1.65
2022-08-26T13:26:50.826Z,1.70
2022-08-26T13:34:37.802Z,1.50
2022-08-26T13:39:33.193Z,2.17
2022-08-26T13:42:00.660Z,1.30
2022-08-26T13:44:28.360Z,2.00
2022-08-26T13:46:57.840Z,1.30
2022-08-26T13:49:26.853Z,1.13
2022-08-26T13:54:48.616Z,1.63
2022-08-26T13:57:17.799Z,1.88
2022-08-26T13:59:47.590Z,1.20
2022-08-26T14:02:16.815Z,1.40
2022-08-26T14:04:44.153Z,1.23
2022-08-26T14:07:13.552Z,1.33
2022-08-26T14:09:41.185Z,1.30
2022-08-26T14:12:09.515Z,1.70
2022-08-26T14:18:50.928Z,1.35
2022-08-26T14:21:19.033Z,1.40
2022-08-26T14:23:49.102Z,1.35
2022-08-26T14:28:59.564Z,1.52
2022-08-26T14:31:32.168Z,1.40
2022-08-26T14:34:05.137Z,1.50
2022-08-26T14:39:59.699Z,1.50
2022-08-26T14:42:31.426Z,1.40
2022-08-26T14:45:02.122Z,1.40
2022-08-26T14:47:29.634Z,1.70
2022-08-26T14:49:58.369Z,1.30
2022-08-26T14:52:27.573Z,1.42
2022-08-26T14:54:59.178Z,1.33
2022-08-26T15:02:32.848Z,1.70
2022-08-26T15:05:02.749Z,1.45
2022-08-26T15:07:30.866Z,1.20
2022-08-26T15:09:58.487Z,1.30
2022-08-26T15:12:27.621Z,1.10
2022-08-26T15:14:56.605Z,1.70
2022-08-26T15:17:24.666Z,1.40
2022-08-26T15:23:08.058Z,1.33
2022-08-26T15:25:37.492Z,1.63
2022-08-26T15:28:06.323Z,1.10
2022-08-26T15:30:34.095Z,1.33
2022-08-26T15:33:01.948Z,1.35
2022-08-26T15:35:30.001Z,2.10
2022-08-26T15:38:00.483Z,1.77
2022-08-26T15:43:28.826Z,1.67
2022-08-26T15:45:59.082Z,1.33
2022-08-26T15:48:28.472Z,1.33
2022-08-26T15:51:01.487Z,1.77
2022-08-26T15:53:32.300Z,1.52
2022-08-26T15:56:03.561Z,1.17
2022-08-26T15:58:31.073Z,1.10
2022-08-26T16:03:46.509Z,1.05
2022-08-26T16:06:18.046Z,1.10
2022-08-26T16:08:46.053Z,1.50
2022-08-26T16:11:16.783Z,1.20
2022-08-26T16:13:44.696Z,1.30
2022-08-26T16:16:13.032Z,1.70
2022-08-26T16:18:40.796Z,1.27
2022-08-26T16:21:14.313Z,1.40
2022-08-26T16:31:23.565Z,1.42
2022-08-26T16:33:51.341Z,1.10
2022-08-26T16:36:19.725Z,1.20
2022-08-26T16:38:53.738Z,1.42
2022-08-26T16:41:22.217Z,1.05
2022-08-26T16:43:50.362Z,1.67
2022-08-26T16:46:19.423Z,1.30
2022-08-26T16:51:52.951Z,1.10
2022-08-26T16:54:20.483Z,1.58
2022-08-26T16:56:48.584Z,1.20
2022-08-26T16:59:18.101Z,1.48
2022-08-26T17:01:46.124Z,1.20
2022-08-26T17:04:13.576Z,1.23
2022-08-26T17:06:41.232Z,1.23
2022-08-26T17:09:08.811Z,1.30
2022-08-26T17:16:43.298Z,0.90
2022-08-26T17:19:10.986Z,1.13
2022-08-26T17:21:40.499Z,1.40
2022-08-26T17:24:08.164Z,1.13
2022-08-26T17:26:37.996Z,1.30
2022-08-26T17:29:07.220Z,1.10
2022-08-26T17:31:34.888Z,1.17
2022-08-26T17:36:58.585Z,1.48
2022-08-26T17:41:54.051Z,1.45
2022-08-26T17:44:21.595Z,1.17
2022-08-26T17:46:48.983Z,1.23
2022-08-26T17:49:18.538Z,1.02
2022-08-26T17:51:48.103Z,0.90
2022-08-26T17:56:57.551Z,1.00
2022-08-26T17:59:25.196Z,1.00
2022-08-26T18:02:01.187Z,0.90
2022-08-26T18:04:28.728Z,1.00
2022-08-26T18:06:57.560Z,1.10
2022-08-26T18:09:25.127Z,1.42
2022-08-26T18:11:52.954Z,1.13
2022-08-26T18:14:22.157Z,0.95
2022-08-26T18:21:58.671Z,0.80
2022-08-26T18:24:30.150Z,1.38
2022-08-26T18:26:59.849Z,1.00
2022-08-26T18:29:28.717Z,0.95
2022-08-26T18:31:58.227Z,1.10
2022-08-26T18:36:59.187Z,0.82
2022-08-26T18:47:13.051Z,0.93
2022-08-26T18:49:40.561Z,0.75
2022-08-26T18:52:09.150Z,0.93
2022-08-26T18:54:38.737Z,1.17
2022-08-26T18:57:09.829Z,0.88
2022-08-26T18:59:39.253Z,1.10
2022-08-26T19:02:10.526Z,1.00
2022-08-26T19:04:39.269Z,0.90
2022-08-26T19:12:30.215Z,1.00
2022-08-26T19:15:02.355Z,1.20
2022-08-26T19:17:30.108Z,1.30
2022-08-26T19:19:59.164Z,1.10
2022-08-26T19:22:30.560Z,1.30
2022-08-26T19:24:59.204Z,0.80
2022-08-26T19:27:28.405Z,1.50
2022-08-26T19:34:42.291Z,1.30
2022-08-26T19:37:10.137Z,1.00
2022-08-26T19:39:41.585Z,0.90
2022-08-26T19:42:09.787Z,1.20
2022-08-26T19:44:58.545Z,1.40
2022-08-26T19:47:26.719Z,1.33
2022-08-26T19:49:59.206Z,1.30
2022-08-26T20:01:09.969Z,1.52
2022-08-26T20:03:38.943Z,1.33
2022-08-26T20:06:09.001Z,1.13
2022-08-26T20:08:38.797Z,1.50
2022-08-26T20:11:10.000Z,1.20
2022-08-26T20:13:39.744Z,1.40
2022-08-26T20:26:08.922Z,1.20
2022-08-26T20:28:40.908Z,1.17
2022-08-26T20:31:11.112Z,1.25
2022-08-26T20:33:46.236Z,1.10
2022-08-26T20:36:15.473Z,0.90
2022-08-26T20:38:44.793Z,1.23
2022-08-26T20:41:12.633Z,1.20
2022-08-26T20:46:24.681Z,1.65
2022-08-26T20:48:54.014Z,1.30
2022-08-26T20:51:26.579Z,1.10
2022-08-26T20:53:54.017Z,1.20
2022-08-26T20:56:24.666Z,1.48
2022-08-26T20:58:55.197Z,1.70
2022-08-26T21:01:27.091Z,1.00
2022-08-26T21:06:52.902Z,1.08
2022-08-26T21:09:25.130Z,1.38
2022-08-26T21:11:54.985Z,1.10
2022-08-26T21:14:23.123Z,1.27
2022-08-26T21:16:54.577Z,1.15
2022-08-26T21:19:22.394Z,1.17
2022-08-26T21:21:50.543Z,1.23
2022-08-26T21:24:22.149Z,1.20
2022-08-26T21:31:53.722Z,1.33
2022-08-26T21:34:21.334Z,1.30
2022-08-26T21:36:49.457Z,1.08
2022-08-26T21:39:19.373Z,1.30
2022-08-26T21:44:20.352Z,1.13
2022-08-26T21:46:51.986Z,2.22
2022-08-26T21:52:10.958Z,1.48
2022-08-26T21:54:39.899Z,1.30
2022-08-26T21:57:19.393Z,2.53
2022-08-26T21:59:48.398Z,1.30
2022-08-26T22:02:17.712Z,1.40
2022-08-26T22:04:48.690Z,1.15
2022-08-26T22:07:19.893Z,1.42
2022-08-26T22:14:45.385Z,1.65
2022-08-26T22:17:13.014Z,1.40
2022-08-26T22:19:46.248Z,1.65
2022-08-26T22:22:16.028Z,1.60
2022-08-26T22:27:13.769Z,1.65
2022-08-26T22:29:41.556Z,1.50
2022-08-26T22:34:49.911Z,1.48
2022-08-26T22:37:19.117Z,1.95
2022-08-26T22:39:48.016Z,1.83
2022-08-26T22:42:15.547Z,1.90
2022-08-26T22:44:43.715Z,1.65
2022-08-26T22:47:11.230Z,1.48
2022-08-26T22:49:39.953Z,1.88
2022-08-26T22:54:49.481Z,1.60
2022-08-26T22:57:18.265Z,1.67
2022-08-26T22:59:49.942Z,1.63
2022-08-26T23:02:20.376Z,1.60
2022-08-26T23:04:50.379Z,1.80
2022-08-26T23:09:48.456Z,1.60
2022-08-26T23:17:30.186Z,1.48
2022-08-26T23:19:59.623Z,1.90
2022-08-26T23:22:28.125Z,1.63
2022-08-26T23:24:55.581Z,1.70
2022-08-26T23:27:22.955Z,1.67
2022-08-26T23:29:51.370Z,1.63
2022-08-26T23:32:20.606Z,1.77
2022-08-26T23:42:51.806Z,1.67
2022-08-26T23:45:21.270Z,1.50
2022-08-26T23:47:50.439Z,1.98
2022-08-26T23:50:23.728Z,1.77
2022-08-26T23:53:06.258Z,1.55
2022-08-26T23:55:40.147Z,1.85
2022-08-26T23:58:09.020Z,1.80
